createdAt,value
2023-02-26T00:00:22.463Z,97754.81
2023-02-26T00:05:24.234Z,97763.41
2023-02-26T00:10:26.181Z,97773.63
2023-02-26T00:15:28.265Z,97781.49
2023-02-26T00:20:30.374Z,97784.71
2023-02-26T00:25:32.309Z,97788.42
2023-02-26T00:30:35.942Z,97796.84
2023-02-26T00:35:38.292Z,97801.48
2023-02-26T00:40:44.250Z,97809.33
2023-02-26T00:46:15.342Z,97814.52
2023-02-26T00:51:36.201Z,97816.90
2023-02-26T00:56:38.063Z,97814.50
2023-02-26T01:01:39.928Z,97816.58
2023-02-26T01:06:45.128Z,97817.20
2023-02-26T01:11:47.197Z,97818.80
2023-02-26T01:16:58.193Z,97820.33
2023-02-26T01:22:08.478Z,97813.39
2023-02-26T01:27:10.366Z,97816.89
2023-02-26T01:32:19.630Z,97821.98
2023-02-26T01:37:31.442Z,97831.44
2023-02-26T01:42:37.993Z,97836.48
2023-02-26T01:47:48.303Z,97848.61
2023-02-26T01:52:50.212Z,97854.14
2023-02-26T01:57:55.943Z,97866.33
2023-02-26T02:02:57.950Z,97869.63
2023-02-26T02:08:00.663Z,97874.55
2023-02-26T02:13:40.786Z,97887.39
2023-02-26T02:19:08.749Z,97896.25
2023-02-26T02:24:25.180Z,97901.04
2023-02-26T02:30:04.940Z,97908.33
2023-02-26T02:35:20.739Z,97914.83
2023-02-26T02:40:28.671Z,97920.20
2023-02-26T02:45:51.645Z,97921.89
2023-02-26T02:51:01.552Z,97918.12
2023-02-26T02:56:06.730Z,97927.33
2023-02-26T03:01:14.421Z,97928.58
2023-02-26T03:06:17.803Z,97933.48
2023-02-26T03:11:20.377Z,97939.73
2023-02-26T03:16:48.835Z,97941.70
2023-02-26T03:22:03.250Z,97952.54
2023-02-26T03:27:45.809Z,97964.31
2023-02-26T03:33:12.446Z,97982.10
2023-02-26T03:38:31.322Z,97998.35
2023-02-26T03:43:43.116Z,98007.91
2023-02-26T03:48:51.289Z,98017.30
2023-02-26T03:54:22.984Z,98022.42
2023-02-26T03:59:34.910Z,98031.08
2023-02-26T04:05:17.327Z,98033.21
2023-02-26T04:10:25.151Z,98038.58
2023-02-26T04:15:26.833Z,98042.48
2023-02-26T04:20:29.691Z,98057.16
2023-02-26T04:25:31.515Z,98059.98
2023-02-26T04:30:34.261Z,98062.61
2023-02-26T04:35:36.994Z,98072.35
2023-02-26T04:40:38.770Z,98085.23
2023-02-26T04:45:40.907Z,98096.73
2023-02-26T04:50:43.730Z,98099.76
2023-02-26T04:55:50.717Z,98102.13
2023-02-26T05:00:55.293Z,98106.44
2023-02-26T05:05:57.166Z,98114.48
2023-02-26T05:10:58.854Z,98121.30
2023-02-26T05:16:00.561Z,98130.20
2023-02-26T05:21:03.810Z,98135.98
2023-02-26T05:26:06.756Z,98142.02
2023-02-26T05:31:08.559Z,98151.87
2023-02-26T05:36:11.521Z,98158.79
2023-02-26T05:41:13.299Z,98172.55
2023-02-26T05:46:15.211Z,98187.41
2023-02-26T05:51:16.884Z,98202.85
2023-02-26T05:56:18.567Z,98211.25
2023-02-26T06:01:20.492Z,98221.44
2023-02-26T06:06:22.492Z,98228.67
2023-02-26T06:11:24.219Z,98238.30
2023-02-26T06:16:26.794Z,98246.09
2023-02-26T06:21:28.774Z,98251.36
2023-02-26T06:26:30.525Z,98264.02
2023-02-26T06:31:32.252Z,98274.64
2023-02-26T06:36:33.918Z,98282.11
2023-02-26T06:41:35.881Z,98287.48
2023-02-26T06:46:37.986Z,98290.87
2023-02-26T06:51:39.906Z,98293.17
2023-02-26T06:56:41.603Z,98302.13
2023-02-26T07:01:43.394Z,98309.58
2023-02-26T07:06:45.086Z,98311.94
2023-02-26T07:11:46.812Z,98313.80
2023-02-26T07:16:48.614Z,98322.74
2023-02-26T07:21:50.486Z,98329.11
2023-02-26T07:26:52.653Z,98334.40
2023-02-26T07:31:54.350Z,98334.38
2023-02-26T07:36:56.170Z,98344.10
2023-02-26T07:41:57.850Z,98352.92
2023-02-26T07:47:02.657Z,98358.81
2023-02-26T07:52:05.551Z,98366.35
2023-02-26T07:57:07.395Z,98369.38
2023-02-26T08:02:11.229Z,98376.92
2023-02-26T08:07:12.935Z,98384.10
2023-02-26T08:12:14.661Z,98394.98
2023-02-26T08:17:16.437Z,98397.25
2023-02-26T08:22:18.122Z,98396.40
2023-02-26T08:27:19.806Z,98397.49
2023-02-26T08:32:23.052Z,98403.34
2023-02-26T08:37:24.929Z,98408.90
2023-02-26T08:42:26.625Z,98409.55
2023-02-26T08:47:29.260Z,98417.24
2023-02-26T08:52:31.091Z,98423.61
2023-02-26T08:57:33.033Z,98426.25
2023-02-26T09:02:34.804Z,98425.02
2023-02-26T09:07:36.496Z,98423.27
2023-02-26T09:12:38.213Z,98425.30
2023-02-26T09:17:40.754Z,98429.79
2023-02-26T09:22:42.535Z,98443.80
2023-02-26T09:27:44.320Z,98454.61
2023-02-26T09:32:46.116Z,98446.01
2023-02-26T09:37:48.049Z,98448.54
2023-02-26T09:43:26.671Z,98458.33
2023-02-26T09:48:31.183Z,98469.23
2023-02-26T09:53:40.495Z,98469.80
2023-02-26T09:58:44.155Z,98481.61
2023-02-26T10:04:11.576Z,98493.52
2023-02-26T10:09:44.161Z,98507.52
2023-02-26T10:14:56.736Z,98525.55
2023-02-26T10:20:05.202Z,98535.39
2023-02-26T10:25:15.850Z,98546.21
2023-02-26T10:30:36.537Z,98554.49
2023-02-26T10:35:47.497Z,98568.45
2023-02-26T10:41:05.572Z,98577.61
2023-02-26T10:46:48.904Z,98581.42
2023-02-26T10:51:52.926Z,98590.30
2023-02-26T10:56:54.719Z,98601.90
2023-02-26T11:01:57.506Z,98621.13
2023-02-26T11:07:02.811Z,98619.46
2023-02-26T11:12:18.094Z,98619.47
2023-02-26T11:17:23.823Z,98622.61
2023-02-26T11:22:27.661Z,98628.35
2023-02-26T11:27:36.806Z,98628.55
2023-02-26T11:32:39.565Z,98625.86
2023-02-26T11:37:46.150Z,98625.02
2023-02-26T11:42:58.188Z,98619.48
2023-02-26T11:48:05.132Z,98629.09
2023-02-26T11:53:15.467Z,98629.23
2023-02-26T11:58:22.009Z,98638.50
2023-02-26T12:03:30.636Z,98643.16
2023-02-26T12:08:42.207Z,98651.05
2023-02-26T12:14:12.431Z,98656.96
2023-02-26T12:19:38.559Z,98667.40
2023-02-26T12:24:57.783Z,98674.52
2023-02-26T12:30:37.079Z,98684.73
2023-02-26T12:35:46.682Z,98699.11
2023-02-26T12:40:57.710Z,98705.13
2023-02-26T12:46:12.116Z,98716.89
2023-02-26T12:51:37.553Z,98724.79
2023-02-26T12:56:51.231Z,98729.83
2023-02-26T13:02:02.431Z,98733.21
2023-02-26T13:07:12.535Z,98738.13
2023-02-26T13:12:22.638Z,98741.44
2023-02-26T13:17:39.429Z,98739.84
2023-02-26T13:22:46.687Z,98743.91
2023-02-26T13:27:50.591Z,98747.30
2023-02-26T13:32:56.272Z,98754.73
2023-02-26T13:38:03.067Z,98766.45
2023-02-26T13:43:17.839Z,98777.20
2023-02-26T13:48:31.697Z,98783.39
2023-02-26T13:53:33.772Z,98784.80
2023-02-26T13:58:39.622Z,98796.93
2023-02-26T14:03:47.859Z,98798.50
2023-02-26T14:08:53.992Z,98801.76
2023-02-26T14:14:20.322Z,98815.96
2023-02-26T14:19:41.439Z,98812.92
2023-02-26T14:24:54.937Z,98811.86
2023-02-26T14:29:56.555Z,98816.24
2023-02-26T14:35:06.401Z,98819.02
2023-02-26T14:40:18.255Z,98822.45
2023-02-26T14:45:38.017Z,98827.38
2023-02-26T14:51:16.861Z,98845.96
2023-02-26T14:56:40.384Z,98853.02
2023-02-26T15:02:20.191Z,98864.70
2023-02-26T15:07:40.171Z,98872.91
2023-02-26T15:13:06.196Z,98882.95
2023-02-26T15:18:22.668Z,98892.33
2023-02-26T15:23:38.403Z,98899.86
2023-02-26T15:28:42.086Z,98903.23
2023-02-26T15:33:45.092Z,98910.83
2023-02-26T15:38:48.917Z,98917.64
2023-02-26T15:44:05.270Z,98919.95
2023-02-26T15:49:13.370Z,98923.40
2023-02-26T15:54:19.871Z,98927.40
2023-02-26T15:59:26.770Z,98933.63
2023-02-26T16:04:28.413Z,98937.90
2023-02-26T16:09:42.201Z,98942.55
2023-02-26T16:14:49.830Z,98946.23
2023-02-26T16:19:52.664Z,98952.20
2023-02-26T16:25:24.789Z,98963.60
2023-02-26T16:30:33.996Z,98972.70
2023-02-26T16:35:43.920Z,98981.29
2023-02-26T16:40:46.917Z,98993.67
2023-02-26T16:45:57.259Z,98995.69
2023-02-26T16:51:02.679Z,99000.17
2023-02-26T16:56:05.543Z,99006.64
2023-02-26T17:01:18.281Z,99012.21
2023-02-26T17:06:22.326Z,99019.76
2023-02-26T17:11:33.026Z,99017.31
2023-02-26T17:16:34.876Z,99026.46
2023-02-26T17:21:50.360Z,99038.34
2023-02-26T17:26:52.339Z,99048.08
2023-02-26T17:31:54.680Z,99058.67
2023-02-26T17:36:57.455Z,99061.26
2023-02-26T17:41:59.382Z,99062.84
2023-02-26T17:47:01.355Z,99067.73
2023-02-26T17:52:04.498Z,99070.13
2023-02-26T17:57:06.601Z,99073.49
2023-02-26T18:02:27.034Z,99075.11
2023-02-26T18:07:28.701Z,99080.53
2023-02-26T18:12:31.137Z,99087.92
2023-02-26T18:17:33.827Z,99093.74
2023-02-26T18:22:35.644Z,99102.00
2023-02-26T18:27:37.494Z,99112.53
2023-02-26T18:32:39.362Z,99119.92
2023-02-26T18:37:41.610Z,99124.09
2023-02-26T18:42:43.818Z,99128.55
2023-02-26T18:47:46.957Z,99128.87
2023-02-26T18:52:49.128Z,99129.35
2023-02-26T18:57:50.968Z,99135.48
2023-02-26T19:02:52.675Z,99150.10
2023-02-26T19:07:55.190Z,99158.43
2023-02-26T19:12:58.346Z,99166.95
2023-02-26T19:18:00.050Z,99164.41
2023-02-26T19:23:03.394Z,99164.58
2023-02-26T19:28:05.365Z,99167.73
2023-02-26T19:33:07.408Z,99171.48
2023-02-26T19:38:10.168Z,99167.82
2023-02-26T19:43:12.177Z,99172.44
2023-02-26T19:48:14.299Z,99174.61
2023-02-26T19:53:16.224Z,99182.17
2023-02-26T19:58:19.714Z,99190.90
2023-02-26T20:03:22.623Z,99203.21
2023-02-26T20:08:26.920Z,99216.27
2023-02-26T20:13:30.195Z,99209.77
2023-02-26T20:18:33.388Z,99215.77
2023-02-26T20:23:37.713Z,99221.26
2023-02-26T20:28:40.665Z,99223.86
2023-02-26T20:33:42.592Z,99224.63
2023-02-26T20:38:44.809Z,99225.66
2023-02-26T20:43:46.634Z,99226.04
2023-02-26T20:48:48.250Z,99229.19
2023-02-26T20:53:51.444Z,99237.88
2023-02-26T20:58:53.165Z,99237.60
2023-02-26T21:03:55.059Z,99240.27
2023-02-26T21:08:56.912Z,99247.42
2023-02-26T21:13:59.907Z,99249.29
2023-02-26T21:19:02.646Z,99247.33
2023-02-26T21:24:04.906Z,99247.27
2023-02-26T21:29:06.631Z,99258.24
2023-02-26T21:34:30.175Z,99260.90
2023-02-26T21:39:31.120Z,99262.15
2023-02-26T21:44:34.473Z,99268.95
2023-02-26T21:49:36.230Z,99269.49
2023-02-26T21:54:38.056Z,99275.14
2023-02-26T21:59:39.868Z,99281.60
2023-02-26T22:04:42.074Z,99282.58
2023-02-26T22:09:47.461Z,99289.58
2023-02-26T22:14:54.909Z,99290.90
2023-02-26T22:19:57.067Z,99295.50
2023-02-26T22:24:58.771Z,99298.27
2023-02-26T22:30:00.833Z,99300.83
2023-02-26T22:35:02.494Z,99305.49
2023-02-26T22:40:04.810Z,99312.61
2023-02-26T22:45:07.577Z,99317.60
2023-02-26T22:50:10.158Z,99319.14
2023-02-26T22:55:12.230Z,99325.59
2023-02-26T23:00:18.623Z,99327.27
2023-02-26T23:05:20.801Z,99333.55
2023-02-26T23:10:22.776Z,99342.73
2023-02-26T23:15:24.560Z,99340.83
2023-02-26T23:20:26.195Z,99341.17
2023-02-26T23:25:28.848Z,99343.66
2023-02-26T23:30:31.281Z,99355.75
2023-02-26T23:35:33.859Z,99360.54
2023-02-26T23:40:35.765Z,99364.43
2023-02-26T23:45:37.464Z,99363.66
2023-02-26T23:50:39.224Z,99369.80
2023-02-26T23:55:41.022Z,99369.52
